Huvudsida
METAR-TAF:

METAR-TAF

Flygplatser :

Washington Dulles International Airport

Washington, Virginia, USA

latitud: 38-56-05N, longitud: 077-26-51W, höjd: 95 m

Aktuellt väderrapport

Denna rapport gjordes för 1 timme och 6 minuter sedan, klockan 04:52 UTC
Stilla vind
Temperatur 16°C
Fuktighet 88%
Tryck 1020 hPa
Sikt: 16.1 km
Spridda moln på en höjd av 25000 ft

METAR: KIAD 240452Z 00000KT 10SM SCT250 16/14 A3012 RMK AO2 SLP197 T01560144 402670144

Tid: 01:58 (05:58 UTC)

Väderprognos

Denna rapport gjordes för 23 minuter sedan, klockan 05:35 UTC
Prognos gäller från 24 kl. 06 UTC till 25 kl. 12 UTC
Vind kt från nord
Sikt: 10 km
Spridda moln på en höjd av 25000 ft
Från 24 kl. 1400 UTC
Vind 6 kt från nord
Sikt: 10 km
Få moln på en höjd av 25000 ft
Från 25 kl. 0000 UTC
Vind 3 kt varierande vindriktning
Sikt: 10 km
Klar himmel

TAF: KIAD 240535Z 2406/2512 00000KT P6SM SCT250 FM241400 35006KT P6SM FEW250 FM250000 VRB03KT P6SM SKC

Aktuella väderrapporter och prognoser från 4000 flygplatser (METAR- och TAF-rapporter).

De tillgängliga stationerna syns som gula och röda prickar på kartan.

För musen över prickarna för att se namnen på stationerna.

Klicka sedan för att få väderrapporter och prognoser.

För att ändra kartan: Klicka på de gröna knapparna med ett svart kors på för att zooma in; den gröna knappen med ett streck på för att zooma ut; eller på de gröna pilarna för angränsande kartor.


METAR-TAF: